aviador You're here:

NFNA Decoded Metar

NAUSORI in FIJI
Report Time2017-08-06 08:00:00
UTC Time2017-08-19 20:32:12
Flight Rules Old
WindCalm
Visibility9999 m
Phenomena:N/A
Clouds:Scattered 020 Hf
Broken 048 Hf
Ceiling4,800 ft
Temp20°C (ISA +5)
Dew Point20°C (100% RH)
QNH1017 hPa
Density Alt778 ft
Elevation16 ft
Report Wrong Elevation
Raw Report
METAR NFNA 060800Z 00000KT 9999 SCT020 BKN048 20/20 Q1017=

Extra information for NFNA:More info

Metar Taf Metar & Taf Last 4 Metars F.Rules Stats Wind Profile Meteogram Temp Stats Airport Information Weather charts Add Link Nearby VenuesMetar ALERT Operation Metar Decoded Social comments